Schedule Details


Flight Number: CTN418
Departure: Cilipi (LDDU) at 06:30
Arrival: Frankfurt/main (EDDF) at 08:35
Route: AMUGO UL611 UVODI UL862 SABAD DCT PIKIT DCT SUBEN UQ162 PSA

Weather Information
LDDU 242100Z 07008G18KT 010V120 CAVOK 26/15 Q1016 NOSIG
EDDF 242120Z 08004KT CAVOK 24/16 Q1019 NOSIG
Schedule Frequency

Route Map